createdAt,value
2019-06-10T00:01:23.640Z,3.50
2019-06-10T00:03:51.839Z,3.10
2019-06-10T00:06:20.790Z,3.73
2019-06-10T00:08:46.302Z,3.23
2019-06-10T00:11:12.534Z,3.60
2019-06-10T00:13:41.297Z,3.73
2019-06-10T00:16:08.022Z,4.07
2019-06-10T00:18:41.782Z,3.73
2019-06-10T00:21:04.944Z,3.60
2019-06-10T00:23:32.002Z,3.40
2019-06-10T00:26:01.268Z,3.10
2019-06-10T00:28:26.649Z,3.20
2019-06-10T00:30:52.879Z,4.20
2019-06-10T00:33:21.446Z,3.40
2019-06-10T00:35:47.289Z,2.53
2019-06-10T00:38:14.549Z,3.90
2019-06-10T00:40:41.673Z,2.97
2019-06-10T00:43:09.180Z,3.20
2019-06-10T00:45:36.622Z,3.67
2019-06-10T00:48:12.354Z,3.00
2019-06-10T00:50:31.204Z,3.47
2019-06-10T00:52:57.444Z,2.57
2019-06-10T00:55:23.789Z,2.60
2019-06-10T00:57:50.968Z,2.50
2019-06-10T01:00:25.239Z,2.73
2019-06-10T01:02:46.201Z,3.13
2019-06-10T01:05:15.299Z,3.47
2019-06-10T01:07:41.503Z,2.70
2019-06-10T01:10:09.005Z,3.37
2019-06-10T01:12:35.384Z,3.30
2019-06-10T01:15:03.175Z,3.10
2019-06-10T01:17:31.113Z,3.07
2019-06-10T01:19:57.774Z,2.90
2019-06-10T01:22:24.105Z,3.23
2019-06-10T01:24:51.054Z,3.10
2019-06-10T01:27:18.060Z,2.63
2019-06-10T01:29:44.430Z,3.30
2019-06-10T01:32:12.277Z,3.10
2019-06-10T01:34:41.544Z,2.90
2019-06-10T01:37:07.257Z,2.80
2019-06-10T01:39:33.494Z,3.00
2019-06-10T01:42:00.593Z,3.07
2019-06-10T01:44:27.038Z,3.30
2019-06-10T01:46:53.289Z,2.83
2019-06-10T01:49:21.355Z,3.20
2019-06-10T01:51:47.670Z,3.13
2019-06-10T01:54:16.443Z,3.53
2019-06-10T01:56:42.820Z,3.30
2019-06-10T01:59:12.146Z,3.23
2019-06-10T02:01:45.118Z,3.33
2019-06-10T02:04:14.369Z,2.70
2019-06-10T02:06:40.597Z,3.10
2019-06-10T02:09:07.128Z,3.20
2019-06-10T02:11:34.269Z,2.43
2019-06-10T02:14:01.499Z,2.80
2019-06-10T02:16:27.759Z,3.10
2019-06-10T02:19:00.252Z,3.60
2019-06-10T02:21:24.409Z,3.43
2019-06-10T02:23:52.063Z,2.90
2019-06-10T02:26:19.906Z,2.33
2019-06-10T02:28:46.934Z,3.50
2019-06-10T02:31:17.505Z,3.53
2019-06-10T02:33:42.137Z,3.63
2019-06-10T02:36:08.514Z,3.40
2019-06-10T02:38:39.275Z,3.37
2019-06-10T02:41:04.751Z,3.60
2019-06-10T02:43:36.152Z,3.00
2019-06-10T02:45:59.485Z,2.60
2019-06-10T02:48:30.274Z,3.07
2019-06-10T02:51:03.892Z,3.23
2019-06-10T02:53:35.598Z,3.13
2019-06-10T02:55:59.944Z,2.90
2019-06-10T02:58:31.525Z,3.37
2019-06-10T03:00:54.804Z,2.83
2019-06-10T03:03:31.680Z,3.73
2019-06-10T03:05:49.423Z,3.13
2019-06-10T03:08:16.185Z,3.40
2019-06-10T03:10:44.418Z,2.63
2019-06-10T03:13:12.676Z,3.00
2019-06-10T03:15:43.891Z,3.20
2019-06-10T03:18:12.806Z,3.17
2019-06-10T03:20:38.515Z,2.70
2019-06-10T03:23:05.094Z,3.10
2019-06-10T03:25:32.789Z,3.10
2019-06-10T03:27:59.173Z,2.77
2019-06-10T03:30:37.605Z,3.17
2019-06-10T03:32:55.545Z,2.90
2019-06-10T03:35:24.218Z,3.60
2019-06-10T03:37:52.688Z,3.47
2019-06-10T03:40:18.603Z,3.20
2019-06-10T03:42:45.258Z,3.13
2019-06-10T03:45:12.824Z,3.10
2019-06-10T03:47:39.256Z,3.27
2019-06-10T03:50:06.401Z,3.60
2019-06-10T03:52:32.640Z,3.10
2019-06-10T03:54:58.926Z,3.20
2019-06-10T03:57:26.826Z,3.50
2019-06-10T03:59:53.301Z,3.57
2019-06-10T04:02:19.539Z,3.17
2019-06-10T04:04:45.796Z,3.07
2019-06-10T04:07:14.230Z,3.07
2019-06-10T04:09:42.384Z,3.60
2019-06-10T04:12:08.309Z,3.53
2019-06-10T04:14:34.555Z,3.30
2019-06-10T04:17:02.698Z,3.30
2019-06-10T04:19:29.343Z,3.47
2019-06-10T04:21:56.084Z,2.87
2019-06-10T04:24:24.243Z,3.50
2019-06-10T04:26:52.159Z,3.80
2019-06-10T04:29:18.505Z,3.90
2019-06-10T04:31:44.993Z,3.40
2019-06-10T04:34:12.400Z,3.67
2019-06-10T04:36:42.074Z,3.97
2019-06-10T04:39:07.737Z,3.60
2019-06-10T04:41:33.980Z,4.47
2019-06-10T04:44:02.697Z,3.97
2019-06-10T04:46:29.643Z,4.20
2019-06-10T04:48:56.077Z,3.80
2019-06-10T04:51:23.864Z,4.47
2019-06-10T04:53:52.407Z,4.37
2019-06-10T04:56:19.690Z,3.50
2019-06-10T04:58:46.197Z,4.17
2019-06-10T05:01:12.462Z,3.47
2019-06-10T05:03:38.784Z,3.40
2019-06-10T05:06:05.036Z,3.70
2019-06-10T05:08:33.818Z,4.00
2019-06-10T05:10:59.515Z,3.63
2019-06-10T05:13:27.030Z,3.50
2019-06-10T05:15:54.115Z,4.00
2019-06-10T05:18:23.837Z,4.80
2019-06-10T05:20:57.711Z,3.33
2019-06-10T05:23:16.653Z,3.60
2019-06-10T05:25:42.896Z,3.90
2019-06-10T05:28:09.116Z,4.80
2019-06-10T05:30:35.354Z,4.17
2019-06-10T05:33:02.987Z,3.30
2019-06-10T05:35:29.927Z,4.90
2019-06-10T05:37:57.405Z,4.30
2019-06-10T05:40:25.155Z,3.90
2019-06-10T05:42:52.880Z,3.83
2019-06-10T05:45:19.349Z,3.53
2019-06-10T05:47:45.937Z,3.50
2019-06-10T05:50:12.939Z,4.07
2019-06-10T05:52:39.401Z,3.60
2019-06-10T05:55:05.841Z,3.27
2019-06-10T05:57:34.123Z,3.90
2019-06-10T06:00:02.988Z,3.23
2019-06-10T06:02:29.837Z,3.93
2019-06-10T06:04:56.424Z,3.77
2019-06-10T06:07:22.649Z,3.33
2019-06-10T06:09:48.984Z,3.80
2019-06-10T06:12:15.322Z,3.67
2019-06-10T06:14:42.585Z,3.43
2019-06-10T06:17:09.106Z,3.87
2019-06-10T06:19:37.319Z,3.77
2019-06-10T06:22:03.572Z,4.07
2019-06-10T06:24:29.902Z,4.70
2019-06-10T06:26:56.239Z,3.90
2019-06-10T06:29:22.569Z,3.90
2019-06-10T06:31:48.793Z,3.80
2019-06-10T06:34:15.035Z,3.80
2019-06-10T06:36:42.281Z,3.30
2019-06-10T06:39:09.105Z,3.33
2019-06-10T06:41:37.178Z,3.60
2019-06-10T06:44:03.777Z,4.00
2019-06-10T06:46:32.516Z,4.03
2019-06-10T06:48:58.148Z,4.00
2019-06-10T06:51:35.816Z,4.17
2019-06-10T06:53:56.125Z,4.00
2019-06-10T06:56:23.054Z,3.80
2019-06-10T06:58:49.288Z,4.83
2019-06-10T07:01:15.633Z,4.80
2019-06-10T07:03:45.136Z,3.73
2019-06-10T07:06:13.040Z,5.30
2019-06-10T07:08:39.384Z,4.10
2019-06-10T07:11:07.613Z,5.00
2019-06-10T07:13:35.919Z,4.73
2019-06-10T07:16:03.019Z,4.33
2019-06-10T07:18:29.510Z,5.00
2019-06-10T07:20:55.757Z,5.03
2019-06-10T07:23:22.529Z,5.17
2019-06-10T07:25:49.193Z,5.37
2019-06-10T07:28:15.538Z,4.50
2019-06-10T07:30:47.247Z,5.60
2019-06-10T07:33:12.173Z,5.27
2019-06-10T07:35:38.946Z,5.60
2019-06-10T07:38:05.461Z,5.00
2019-06-10T07:40:33.406Z,4.63
2019-06-10T07:43:02.234Z,5.30
2019-06-10T07:45:27.966Z,4.63
2019-06-10T07:47:54.452Z,4.80
2019-06-10T07:50:22.711Z,4.27
2019-06-10T07:52:49.012Z,4.93
2019-06-10T07:55:15.449Z,5.07
2019-06-10T07:57:43.833Z,4.87
2019-06-10T08:00:12.533Z,5.10
2019-06-10T08:02:39.719Z,4.50
2019-06-10T08:05:07.207Z,6.27
2019-06-10T08:07:35.120Z,4.87
2019-06-10T08:10:04.294Z,4.73
2019-06-10T08:12:32.567Z,5.07
2019-06-10T08:14:59.360Z,4.37
2019-06-10T08:17:25.689Z,5.33
2019-06-10T08:19:54.385Z,4.53
2019-06-10T08:22:32.988Z,5.33
2019-06-10T08:24:48.498Z,4.50
2019-06-10T08:27:15.400Z,4.37
2019-06-10T08:29:46.200Z,4.33
2019-06-10T08:32:10.237Z,4.30
2019-06-10T08:34:37.955Z,4.60
2019-06-10T08:37:04.676Z,3.90
2019-06-10T08:39:33.469Z,3.57
2019-06-10T08:41:59.768Z,4.00
2019-06-10T08:44:26.006Z,3.70
2019-06-10T08:46:52.506Z,3.57
2019-06-10T08:49:18.973Z,3.80
2019-06-10T08:51:48.137Z,4.40
2019-06-10T08:54:13.352Z,3.57
2019-06-10T08:56:40.120Z,3.97
2019-06-10T08:59:06.421Z,3.23
2019-06-10T09:01:33.456Z,3.53
2019-06-10T09:04:02.904Z,3.47
2019-06-10T09:06:28.700Z,3.80
2019-06-10T09:08:54.936Z,3.30
2019-06-10T09:11:23.559Z,3.13
2019-06-10T09:13:50.434Z,3.27
2019-06-10T09:16:19.514Z,3.40
2019-06-10T09:18:48.024Z,2.97
2019-06-10T09:21:13.734Z,2.93
2019-06-10T09:23:41.101Z,3.30
2019-06-10T09:26:08.195Z,3.30
2019-06-10T09:28:34.446Z,2.90
2019-06-10T09:31:03.665Z,2.73
2019-06-10T09:33:28.926Z,2.87
2019-06-10T09:35:55.267Z,3.50
2019-06-10T09:38:22.335Z,2.80
2019-06-10T09:41:00.742Z,3.07
2019-06-10T09:43:22.580Z,2.80
2019-06-10T09:45:51.361Z,3.43
2019-06-10T09:48:19.474Z,2.93
2019-06-10T09:50:51.382Z,3.03
2019-06-10T09:53:26.683Z,3.10
2019-06-10T09:55:46.040Z,3.53
2019-06-10T09:58:12.362Z,2.73
2019-06-10T10:01:13.264Z,3.30
2019-06-10T10:03:41.852Z,3.30
2019-06-10T10:06:15.318Z,3.33
2019-06-10T10:08:36.700Z,3.30
2019-06-10T10:11:03.227Z,2.90
2019-06-10T10:13:29.871Z,3.60
2019-06-10T10:15:56.460Z,3.43
2019-06-10T10:18:23.602Z,3.67
2019-06-10T10:20:53.162Z,3.20
2019-06-10T10:23:18.456Z,3.70
2019-06-10T10:25:47.629Z,3.60
2019-06-10T10:28:13.463Z,3.40
2019-06-10T10:30:42.516Z,3.83
2019-06-10T10:33:07.946Z,3.60
2019-06-10T10:35:34.281Z,4.00
2019-06-10T10:38:03.705Z,3.60
2019-06-10T10:40:28.832Z,3.30
2019-06-10T10:43:10.199Z,3.10
2019-06-10T10:45:23.497Z,2.87
2019-06-10T10:47:51.843Z,3.23
2019-06-10T10:50:18.569Z,3.60
2019-06-10T10:52:46.327Z,2.50
2019-06-10T10:55:14.179Z,3.07
2019-06-10T10:57:41.249Z,2.63
2019-06-10T11:00:09.001Z,3.30
2019-06-10T11:02:35.333Z,3.13
2019-06-10T11:05:01.878Z,3.10
2019-06-10T11:07:28.115Z,2.97
2019-06-10T11:09:56.714Z,2.90
2019-06-10T11:12:23.389Z,3.07
2019-06-10T11:14:54.405Z,3.57
2019-06-10T11:17:22.191Z,3.67
2019-06-10T11:19:49.320Z,3.97
2019-06-10T11:22:15.819Z,3.43
2019-06-10T11:24:44.608Z,3.80
2019-06-10T11:27:12.736Z,2.93
2019-06-10T11:29:38.433Z,3.63
2019-06-10T11:32:04.801Z,4.30
2019-06-10T11:34:33.255Z,3.70
2019-06-10T11:36:59.282Z,3.97
2019-06-10T11:39:25.502Z,3.70
2019-06-10T11:41:53.283Z,3.00
2019-06-10T11:44:21.966Z,4.03
2019-06-10T11:46:48.606Z,3.00
2019-06-10T11:49:14.957Z,3.37
2019-06-10T11:51:41.184Z,3.67
2019-06-10T11:54:07.410Z,3.70
2019-06-10T11:56:33.776Z,3.40
2019-06-10T11:59:04.094Z,3.50
2019-06-10T12:01:28.452Z,3.23
2019-06-10T12:03:57.628Z,3.23
2019-06-10T12:06:23.268Z,2.90
2019-06-10T12:08:51.388Z,3.60
2019-06-10T12:11:17.624Z,3.40
2019-06-10T12:13:43.965Z,4.00
2019-06-10T12:18:38.446Z,3.13
2019-06-10T12:21:04.822Z,3.07
2019-06-10T12:23:33.637Z,3.60
2019-06-10T12:26:00.652Z,3.53
2019-06-10T12:28:27.201Z,3.37
2019-06-10T12:30:57.865Z,3.70
2019-06-10T12:33:25.177Z,2.93
2019-06-10T12:35:51.067Z,3.40
2019-06-10T12:38:17.857Z,3.23
2019-06-10T12:40:44.095Z,2.90
2019-06-10T12:43:12.700Z,3.67
2019-06-10T12:45:38.897Z,3.10
2019-06-10T12:48:06.928Z,3.50
2019-06-10T12:50:33.323Z,3.30
2019-06-10T12:53:00.691Z,3.63
2019-06-10T12:55:39.251Z,3.20
2019-06-10T12:57:56.183Z,2.60
2019-06-10T13:00:26.390Z,2.83
2019-06-10T13:02:53.122Z,3.83
2019-06-10T13:05:22.684Z,3.20
2019-06-10T13:07:49.280Z,2.73
2019-06-10T13:10:28.446Z,3.13
2019-06-10T13:12:55.867Z,2.43
2019-06-10T13:15:22.864Z,2.90
2019-06-10T13:17:49.275Z,2.83
2019-06-10T13:20:15.618Z,2.23
2019-06-10T13:22:43.216Z,3.37
2019-06-10T13:25:13.229Z,2.40
2019-06-10T13:27:38.525Z,2.73
2019-06-10T13:30:06.081Z,2.70
2019-06-10T13:32:32.526Z,2.83
2019-06-10T13:34:58.964Z,2.77
2019-06-10T13:37:25.205Z,2.60
2019-06-10T13:39:52.464Z,3.87
2019-06-10T13:42:18.780Z,2.87
2019-06-10T13:44:45.028Z,3.10
2019-06-10T13:47:14.373Z,2.93
2019-06-10T13:49:39.510Z,3.27
2019-06-10T13:52:11.613Z,3.53
2019-06-10T13:54:33.907Z,3.70
2019-06-10T13:57:01.485Z,3.73
2019-06-10T13:59:28.291Z,3.87
2019-06-10T14:01:54.620Z,2.83
2019-06-10T14:04:25.277Z,3.30
2019-06-10T14:06:50.688Z,2.90
2019-06-10T14:09:17.588Z,3.23
2019-06-10T14:11:43.830Z,3.00
2019-06-10T14:14:10.076Z,3.00
2019-06-10T14:16:36.612Z,3.03
2019-06-10T14:19:05.816Z,3.00
2019-06-10T14:21:33.112Z,3.57
2019-06-10T14:23:59.566Z,2.47
2019-06-10T14:26:37.916Z,3.10
2019-06-10T14:28:53.941Z,3.00
2019-06-10T14:31:38.644Z,2.43
2019-06-10T14:33:48.312Z,2.20
2019-06-10T14:36:16.722Z,2.17
2019-06-10T14:38:42.685Z,2.87
2019-06-10T14:41:10.010Z,2.97
2019-06-10T14:43:36.463Z,3.03
2019-06-10T14:46:02.793Z,2.70
2019-06-10T14:48:29.125Z,2.60
2019-06-10T14:50:55.392Z,2.93
2019-06-10T14:53:23.042Z,3.83
2019-06-10T14:55:52.895Z,3.17
2019-06-10T14:58:19.431Z,2.93
2019-06-10T15:00:45.971Z,2.67
2019-06-10T15:03:16.180Z,3.20
2019-06-10T15:05:43.170Z,2.70
2019-06-10T15:08:09.362Z,3.23
2019-06-10T15:10:35.777Z,2.83
2019-06-10T15:13:02.310Z,3.47
2019-06-10T15:15:28.660Z,2.97
2019-06-10T15:17:55.019Z,3.17
2019-06-10T15:20:22.728Z,2.53
2019-06-10T15:22:49.186Z,3.10
2019-06-10T15:25:17.574Z,3.17
2019-06-10T15:27:44.276Z,3.00
2019-06-10T15:30:15.818Z,2.73
2019-06-10T15:32:39.061Z,3.17
2019-06-10T15:35:06.117Z,2.50
2019-06-10T15:37:33.067Z,3.10
2019-06-10T15:39:59.512Z,2.50
2019-06-10T15:42:25.757Z,3.03
2019-06-10T15:44:55.855Z,2.60
2019-06-10T15:47:26.337Z,2.90
2019-06-10T15:49:49.441Z,2.80
2019-06-10T15:52:17.518Z,2.80
2019-06-10T15:54:43.814Z,2.90
2019-06-10T15:57:26.554Z,2.60
2019-06-10T15:59:38.191Z,2.90
2019-06-10T16:02:04.430Z,2.70
2019-06-10T16:04:34.939Z,3.00
2019-06-10T16:06:58.806Z,2.23
2019-06-10T16:09:25.054Z,3.17
2019-06-10T16:11:53.704Z,3.10
2019-06-10T16:14:20.723Z,2.70
2019-06-10T16:16:48.414Z,3.10
2019-06-10T16:19:16.291Z,3.07
2019-06-10T16:21:42.966Z,2.33
2019-06-10T16:24:09.337Z,2.73
2019-06-10T16:26:35.990Z,2.80
2019-06-10T16:29:02.788Z,2.47
2019-06-10T16:31:29.174Z,3.00
2019-06-10T16:33:55.435Z,2.70
2019-06-10T16:36:24.420Z,2.70
2019-06-10T16:38:49.901Z,2.50
2019-06-10T16:41:17.446Z,2.63
2019-06-10T16:43:43.869Z,3.23
2019-06-10T16:46:10.197Z,3.03
2019-06-10T16:48:36.458Z,3.17
2019-06-10T16:51:03.455Z,2.97
2019-06-10T16:53:32.183Z,2.33
2019-06-10T16:55:58.158Z,2.93
2019-06-10T16:58:27.943Z,3.07
2019-06-10T17:00:52.826Z,2.47
2019-06-10T17:03:20.358Z,2.97
2019-06-10T17:05:47.205Z,2.50
2019-06-10T17:08:13.529Z,2.80
2019-06-10T17:10:39.769Z,2.70
2019-06-10T17:13:07.904Z,3.03
2019-06-10T17:15:34.249Z,2.80
2019-06-10T17:18:02.649Z,3.20
2019-06-10T17:20:29.740Z,3.13
2019-06-10T17:22:56.154Z,2.97
2019-06-10T17:25:23.897Z,3.03
2019-06-10T17:27:52.717Z,2.30
2019-06-10T17:30:19.488Z,2.70
2019-06-10T17:32:46.088Z,3.03
2019-06-10T17:35:14.553Z,3.43
2019-06-10T17:37:43.077Z,2.90
2019-06-10T17:40:09.038Z,2.40
2019-06-10T17:42:38.446Z,2.80
2019-06-10T17:45:04.633Z,2.37
2019-06-10T17:47:32.358Z,2.70
2019-06-10T17:49:59.017Z,3.97
2019-06-10T17:52:25.959Z,3.70
2019-06-10T17:54:52.601Z,4.57
2019-06-10T17:57:19.221Z,3.73
2019-06-10T17:59:45.456Z,3.47
2019-06-10T18:02:12.343Z,4.43
2019-06-10T18:04:39.142Z,5.47
2019-06-10T18:07:05.388Z,4.37
2019-06-10T18:09:34.759Z,3.90
2019-06-10T18:11:59.770Z,4.17
2019-06-10T18:14:26.016Z,4.00
2019-06-10T18:16:52.532Z,4.37
2019-06-10T18:19:18.778Z,3.33
2019-06-10T18:21:45.025Z,3.63
2019-06-10T18:24:12.753Z,4.90
2019-06-10T18:26:39.144Z,4.00
2019-06-10T18:29:08.976Z,3.37
2019-06-10T18:31:35.269Z,3.23
2019-06-10T18:34:02.503Z,2.90
2019-06-10T18:36:29.984Z,3.60
2019-06-10T18:38:56.928Z,3.30
2019-06-10T18:41:23.184Z,3.50
2019-06-10T18:43:49.435Z,4.00
2019-06-10T18:46:15.666Z,3.10
2019-06-10T18:48:43.063Z,3.87
2019-06-10T18:51:12.321Z,3.20
2019-06-10T18:53:39.023Z,3.60
2019-06-10T18:56:05.441Z,3.00
2019-06-10T18:58:34.043Z,3.40
2019-06-10T19:01:05.282Z,2.83
2019-06-10T19:03:28.516Z,3.40
2019-06-10T19:05:54.858Z,2.90
2019-06-10T19:08:22.378Z,3.17
2019-06-10T19:10:49.038Z,2.27
2019-06-10T19:13:15.279Z,3.07
2019-06-10T19:15:42.586Z,2.93
2019-06-10T19:18:08.961Z,3.30
2019-06-10T19:20:38.707Z,3.67
2019-06-10T19:23:03.635Z,2.90
2019-06-10T19:25:30.910Z,3.13
2019-06-10T19:27:58.448Z,2.47
2019-06-10T19:30:25.097Z,3.03
2019-06-10T19:32:52.792Z,3.30
2019-06-10T19:35:19.501Z,3.30
2019-06-10T19:37:45.836Z,2.90
2019-06-10T19:40:12.597Z,3.20
2019-06-10T19:42:40.199Z,3.83
2019-06-10T19:45:07.370Z,2.60
2019-06-10T19:47:34.611Z,3.00
2019-06-10T19:50:04.956Z,2.30
2019-06-10T19:52:32.519Z,2.90
2019-06-10T19:54:59.377Z,2.10
2019-06-10T19:57:25.712Z,2.47
2019-06-10T20:00:07.405Z,2.50
2019-06-10T20:02:22.464Z,2.63
2019-06-10T20:04:48.850Z,2.17
2019-06-10T20:07:15.086Z,2.40
2019-06-10T20:09:44.511Z,2.40
2019-06-10T20:12:09.449Z,2.27
2019-06-10T20:14:36.428Z,2.80
2019-06-10T20:17:03.330Z,2.80
2019-06-10T20:19:29.671Z,1.90
2019-06-10T20:21:55.910Z,2.13
2019-06-10T20:24:22.446Z,3.73
2019-06-10T20:26:48.804Z,3.63
2019-06-10T20:29:15.029Z,2.00
2019-06-10T20:32:01.155Z,2.47
2019-06-10T20:34:27.487Z,2.10
2019-06-10T20:36:53.837Z,2.20
2019-06-10T20:39:24.329Z,2.17
2019-06-10T20:41:52.303Z,1.93
2019-06-10T20:44:16.944Z,3.47
2019-06-10T20:46:44.991Z,2.40
2019-06-10T20:49:13.534Z,2.00
2019-06-10T20:51:52.077Z,2.10
2019-06-10T20:54:07.622Z,2.40
2019-06-10T20:56:33.870Z,2.00
2019-06-10T20:59:02.622Z,2.43
2019-06-10T21:01:28.702Z,1.87
2019-06-10T21:03:55.031Z,2.50
2019-06-10T21:06:22.635Z,2.30
2019-06-10T21:08:51.929Z,2.20
2019-06-10T21:11:18.164Z,2.20
2019-06-10T21:13:48.648Z,2.60
2019-06-10T21:16:12.930Z,2.17
2019-06-10T21:18:40.312Z,2.47
2019-06-10T21:21:06.740Z,2.23
2019-06-10T21:23:33.254Z,1.90
2019-06-10T21:25:59.501Z,2.67
2019-06-10T21:28:25.745Z,2.10
2019-06-10T21:30:54.906Z,2.07
2019-06-10T21:33:43.800Z,2.50
2019-06-10T21:36:08.381Z,2.90
2019-06-10T21:38:34.617Z,2.57
2019-06-10T21:41:03.034Z,2.47
2019-06-10T21:43:29.018Z,2.40
2019-06-10T21:45:57.789Z,2.57
2019-06-10T21:48:23.872Z,2.37
2019-06-10T21:50:54.216Z,2.20
2019-06-10T21:53:18.252Z,3.00
2019-06-10T21:55:45.189Z,2.50
2019-06-10T21:58:11.593Z,2.40
2019-06-10T22:00:53.873Z,1.73
2019-06-10T22:03:08.176Z,2.40
2019-06-10T22:05:34.405Z,2.10
2019-06-10T22:08:02.985Z,2.43
2019-06-10T22:10:28.890Z,2.43
2019-06-10T22:12:55.764Z,2.80
2019-06-10T22:15:22.565Z,2.37
2019-06-10T22:17:50.416Z,2.87
2019-06-10T22:20:18.041Z,2.40
2019-06-10T22:22:44.524Z,2.70
2019-06-10T22:25:13.031Z,2.50
2019-06-10T22:27:39.194Z,2.20
2019-06-10T22:30:11.247Z,2.90
2019-06-10T22:32:34.360Z,2.50
2019-06-10T22:35:02.863Z,2.50
2019-06-10T22:37:28.729Z,2.50
2019-06-10T22:39:56.638Z,2.30
2019-06-10T22:42:23.546Z,2.53
2019-06-10T22:44:49.781Z,3.00
2019-06-10T22:47:16.440Z,2.47
2019-06-10T22:49:43.189Z,2.00
2019-06-10T22:52:12.422Z,2.03
2019-06-10T22:54:38.407Z,2.57
2019-06-10T22:57:04.644Z,2.40
2019-06-10T22:59:30.896Z,2.30
2019-06-10T23:01:58.200Z,1.93
2019-06-10T23:04:25.278Z,2.67
2019-06-10T23:06:53.350Z,1.77
2019-06-10T23:09:22.208Z,2.50
2019-06-10T23:11:48.514Z,2.47
2019-06-10T23:14:14.830Z,2.30
2019-06-10T23:16:42.762Z,2.20
2019-06-10T23:19:09.210Z,2.50
2019-06-10T23:21:35.833Z,2.53
2019-06-10T23:24:03.129Z,2.47
2019-06-10T23:26:30.030Z,1.73
2019-06-10T23:28:58.493Z,2.17
2019-06-10T23:31:24.512Z,2.40
2019-06-10T23:33:53.478Z,2.20
2019-06-10T23:36:19.128Z,1.97
2019-06-10T23:38:45.474Z,2.60
2019-06-10T23:41:13.020Z,2.10
2019-06-10T23:43:39.592Z,2.50
2019-06-10T23:46:06.005Z,2.20
2019-06-10T23:48:32.958Z,2.40
2019-06-10T23:51:00.467Z,2.73
2019-06-10T23:53:27.534Z,2.67
2019-06-10T23:55:54.693Z,2.83
2019-06-10T23:58:22.840Z,4.30
